Chisholm Hibbing Airport
KHIB : now visible

Airfield :











YOU CAN JOIN US ON...

 
LOGIN :

Register | Disclaimer

   EN    FR    IT 

 









Legend :    VFR   Marginal VFR   IFR   Intensive IFR   Very Intensive IFR
Visi :
Ceiling :
>= 8 km
>= 3000ft
5 to 8 km
1000 to 3000 ft
1500m to 5 km
500 to 1000 ft
800 to 1500m
200 to 500 ft
< 800m
< 200 ft
Symbols :   Thunderstorms  Fog  Heavy snow  Heavy precipitations  Wind > 20 kt






- Airport Elevation : 1354 ft
- IATA code : HIB


KHIB - Chisholm Hibbing

CURRENT METAR :
  • 192053Z AUTO 00000KT 10SM SCT065 27/08 A3005 RMK AO2 SLP177 T02670083 58008

EXPIRED METARs :
  • 191953Z AUTO 32006KT 10SM CLR 26/09 A3006 RMK AO2 SLP181 T02610094
  • 191853Z AUTO 29007KT 10SM SCT055 26/09 A3007 RMK AO2 SLP183 T02560089
  • 191753Z AUTO 18004KT 10SM FEW050 24/08 A3008 RMK AO2 SLP186 T02440083 10256 20094 56008
  • 191653Z AUTO 10SM FEW050 23/09 A3009 RMK AO2 SLP189 T02330089
  • 191553Z AUTO VRB05KT 10SM CLR 23/10 A3009 RMK AO2 SLP190 T02330100

TAF KHIB
Valid from the 19 at 18:00 until the 20 at 18:00 UTC


191720Z 1918/2018 24006KT P6SM FEW070 SCT250
FM200800 00000KT 3SM BR SCT003
FM201200 VRB03KT P6SM SCT100
FM201500 VRB03KT P6SM SCT050
PROB30 2015/2018 5SM -TSRA BKN040CB
KZMP FIR / North America



MET'MAP, your aeronautical weather chart ! - Copyright ORBIFLY December 2007 - Disclaimer

ORBIFLY MET'MAP TEAM :

Programming & Development : Alexandra Zaïnal
Original concept : Baudouin d'Aumeries
Technical & hardware support : Manuel Goepfert
Assistance : Marc-Olivier Méhu




SOURCES & CREDITS :

   NOAA       Earth
Advisory